sensor_id;sensor_type;location;lat;lon;timestamp;pressure;altitude;pressure_sealevel;temperature;humidity
36248;BME280;22287;50.824;5.644;2022-12-04T00:01:14;100828.34;;;3.08;71.27
36248;BME280;22287;50.824;5.644;2022-12-04T00:03:44;100832.66;;;3.28;70.56
36248;BME280;22287;50.824;5.644;2022-12-04T00:06:14;100832.66;;;3.28;70.43
36248;BME280;22287;50.824;5.644;2022-12-04T00:08:41;100830.63;;;3.16;70.99
36248;BME280;22287;50.824;5.644;2022-12-04T00:11:11;100828.72;;;3.18;71.15
36248;BME280;22287;50.824;5.644;2022-12-04T00:13:39;100819.16;;;3.14;71.13
36248;BME280;22287;50.824;5.644;2022-12-04T00:16:07;100819.66;;;2.87;71.82
36248;BME280;22287;50.824;5.644;2022-12-04T00:18:34;100822.41;;;3.03;71.25
36248;BME280;22287;50.824;5.644;2022-12-04T00:21:03;100827.50;;;3.08;71.10
36248;BME280;22287;50.824;5.644;2022-12-04T00:23:31;100823.72;;;3.44;70.14
36248;BME280;22287;50.824;5.644;2022-12-04T00:26:06;100822.88;;;3.11;71.05
36248;BME280;22287;50.824;5.644;2022-12-04T00:28:33;100823.56;;;3.15;70.81
36248;BME280;22287;50.824;5.644;2022-12-04T00:31:04;100822.53;;;3.17;70.88
36248;BME280;22287;50.824;5.644;2022-12-04T00:33:31;100824.91;;;3.06;70.79
36248;BME280;22287;50.824;5.644;2022-12-04T00:35:59;100821.69;;;2.82;72.28
36248;BME280;22287;50.824;5.644;2022-12-04T00:38:27;100823.75;;;2.77;72.36
36248;BME280;22287;50.824;5.644;2022-12-04T00:40:54;100815.44;;;2.83;72.32
36248;BME280;22287;50.824;5.644;2022-12-04T00:43:22;100810.72;;;3.21;71.42
36248;BME280;22287;50.824;5.644;2022-12-04T00:45:49;100807.78;;;2.93;71.83
36248;BME280;22287;50.824;5.644;2022-12-04T00:48:15;100807.44;;;2.83;72.68
36248;BME280;22287;50.824;5.644;2022-12-04T00:50:42;100795.22;;;3.45;70.59
36248;BME280;22287;50.824;5.644;2022-12-04T00:53:10;100798.06;;;3.09;71.26
36248;BME280;22287;50.824;5.644;2022-12-04T00:55:41;100806.84;;;2.94;71.29
36248;BME280;22287;50.824;5.644;2022-12-04T00:58:08;100811.47;;;3.08;71.36
36248;BME280;22287;50.824;5.644;2022-12-04T01:00:36;100808.91;;;3.06;71.49
36248;BME280;22287;50.824;5.644;2022-12-04T01:03:04;100803.41;;;3.09;71.15
36248;BME280;22287;50.824;5.644;2022-12-04T01:05:32;100801.22;;;3.00;72.03
36248;BME280;22287;50.824;5.644;2022-12-04T01:08:03;100807.88;;;3.41;70.47
36248;BME280;22287;50.824;5.644;2022-12-04T01:10:30;100800.50;;;3.29;70.86
36248;BME280;22287;50.824;5.644;2022-12-04T01:12:57;100801.66;;;3.08;71.73
36248;BME280;22287;50.824;5.644;2022-12-04T01:15:24;100803.72;;;3.03;71.78
36248;BME280;22287;50.824;5.644;2022-12-04T01:17:51;100797.91;;;2.95;72.25
36248;BME280;22287;50.824;5.644;2022-12-04T01:20:17;100800.09;;;3.04;71.35
36248;BME280;22287;50.824;5.644;2022-12-04T01:22:44;100804.13;;;3.28;70.29
36248;BME280;22287;50.824;5.644;2022-12-04T01:25:11;100800.72;;;3.09;71.95
36248;BME280;22287;50.824;5.644;2022-12-04T01:27:37;100803.59;;;3.22;70.89
36248;BME280;22287;50.824;5.644;2022-12-04T01:30:05;100809.66;;;3.25;70.90
36248;BME280;22287;50.824;5.644;2022-12-04T01:32:32;100805.78;;;2.98;71.97
36248;BME280;22287;50.824;5.644;2022-12-04T01:34:58;100806.09;;;2.92;72.31
36248;BME280;22287;50.824;5.644;2022-12-04T01:37:25;100801.22;;;3.33;71.35
36248;BME280;22287;50.824;5.644;2022-12-04T01:39:52;100803.56;;;2.89;72.10
36248;BME280;22287;50.824;5.644;2022-12-04T01:42:19;100798.38;;;2.86;72.22
36248;BME280;22287;50.824;5.644;2022-12-04T01:48:12;100790.78;;;3.28;70.84
36248;BME280;22287;50.824;5.644;2022-12-04T01:50:41;100798.97;;;3.41;71.00
36248;BME280;22287;50.824;5.644;2022-12-04T01:53:10;100794.09;;;3.16;71.26
36248;BME280;22287;50.824;5.644;2022-12-04T01:55:38;100801.19;;;3.17;70.99
36248;BME280;22287;50.824;5.644;2022-12-04T01:58:05;100805.06;;;2.77;72.66
36248;BME280;22287;50.824;5.644;2022-12-04T02:00:32;100802.44;;;3.10;71.83
36248;BME280;22287;50.824;5.644;2022-12-04T02:03:00;100799.16;;;3.05;71.83
36248;BME280;22287;50.824;5.644;2022-12-04T02:05:27;100798.59;;;2.98;71.75
36248;BME280;22287;50.824;5.644;2022-12-04T02:07:56;100799.16;;;3.05;71.64
36248;BME280;22287;50.824;5.644;2022-12-04T02:10:41;100801.53;;;2.60;73.13
36248;BME280;22287;50.824;5.644;2022-12-04T02:21:35;100788.28;;;3.25;71.08
36248;BME280;22287;50.824;5.644;2022-12-04T02:26:55;100797.63;;;3.17;71.19
36248;BME280;22287;50.824;5.644;2022-12-04T02:32:21;100783.88;;;2.91;72.25
36248;BME280;22287;50.824;5.644;2022-12-04T02:37:32;100786.78;;;2.87;72.73
36248;BME280;22287;50.824;5.644;2022-12-04T02:42:39;100793.56;;;3.10;71.33
36248;BME280;22287;50.824;5.644;2022-12-04T02:45:15;100785.97;;;3.02;72.10
36248;BME280;22287;50.824;5.644;2022-12-04T02:47:45;100789.25;;;3.07;71.02
36248;BME280;22287;50.824;5.644;2022-12-04T02:50:15;100783.81;;;3.26;70.99
36248;BME280;22287;50.824;5.644;2022-12-04T02:52:49;100786.91;;;3.34;70.51
36248;BME280;22287;50.824;5.644;2022-12-04T02:55:31;100788.66;;;3.50;69.55
36248;BME280;22287;50.824;5.644;2022-12-04T02:58:08;100783.31;;;3.50;70.07
36248;BME280;22287;50.824;5.644;2022-12-04T03:00:38;100791.59;;;3.13;70.35
36248;BME280;22287;50.824;5.644;2022-12-04T03:03:12;100795.41;;;2.92;72.14
36248;BME280;22287;50.824;5.644;2022-12-04T03:05:59;100792.28;;;2.84;71.81
36248;BME280;22287;50.824;5.644;2022-12-04T03:08:31;100793.81;;;3.05;71.46
36248;BME280;22287;50.824;5.644;2022-12-04T03:10:59;100792.59;;;2.78;72.33
36248;BME280;22287;50.824;5.644;2022-12-04T03:13:31;100796.66;;;2.85;72.26
36248;BME280;22287;50.824;5.644;2022-12-04T03:21:21;100796.09;;;2.95;71.89
36248;BME280;22287;50.824;5.644;2022-12-04T03:24:19;100794.13;;;3.32;70.62
36248;BME280;22287;50.824;5.644;2022-12-04T03:29:38;100791.63;;;2.96;71.43
36248;BME280;22287;50.824;5.644;2022-12-04T03:32:17;100796.28;;;2.92;71.48
36248;BME280;22287;50.824;5.644;2022-12-04T03:40:18;100797.47;;;2.87;72.40
36248;BME280;22287;50.824;5.644;2022-12-04T03:42:53;100803.88;;;3.00;71.30
36248;BME280;22287;50.824;5.644;2022-12-04T03:45:40;100808.66;;;2.93;72.11
36248;BME280;22287;50.824;5.644;2022-12-04T03:48:18;100809.69;;;2.74;71.76
36248;BME280;22287;50.824;5.644;2022-12-04T03:50:58;100796.44;;;2.72;72.18
36248;BME280;22287;50.824;5.644;2022-12-04T03:53:34;100791.16;;;2.88;71.61
36248;BME280;22287;50.824;5.644;2022-12-04T03:56:17;100790.72;;;2.46;72.73
36248;BME280;22287;50.824;5.644;2022-12-04T03:59:09;100793.91;;;2.52;73.47
36248;BME280;22287;50.824;5.644;2022-12-04T04:01:42;100800.13;;;2.70;72.10
36248;BME280;22287;50.824;5.644;2022-12-04T04:04:16;100787.88;;;2.83;71.99
36248;BME280;22287;50.824;5.644;2022-12-04T04:06:51;100783.59;;;2.96;71.63
36248;BME280;22287;50.824;5.644;2022-12-04T04:09:23;100782.19;;;3.06;71.33
36248;BME280;22287;50.824;5.644;2022-12-04T04:12:02;100789.50;;;2.85;71.80
36248;BME280;22287;50.824;5.644;2022-12-04T04:14:36;100789.25;;;2.90;71.56
36248;BME280;22287;50.824;5.644;2022-12-04T04:17:28;100791.97;;;2.73;72.63
36248;BME280;22287;50.824;5.644;2022-12-04T04:20:17;100792.44;;;2.81;72.04
36248;BME280;22287;50.824;5.644;2022-12-04T04:23:06;100787.91;;;2.98;71.62
36248;BME280;22287;50.824;5.644;2022-12-04T04:25:56;100784.63;;;2.93;71.42
36248;BME280;22287;50.824;5.644;2022-12-04T04:28:35;100784.44;;;2.64;72.50
36248;BME280;22287;50.824;5.644;2022-12-04T04:33:40;100785.72;;;3.39;70.20
36248;BME280;22287;50.824;5.644;2022-12-04T04:45:03;100780.34;;;2.74;72.18
36248;BME280;22287;50.824;5.644;2022-12-04T04:47:44;100785.03;;;2.86;71.78
36248;BME280;22287;50.824;5.644;2022-12-04T04:50:14;100776.75;;;2.75;72.24
36248;BME280;22287;50.824;5.644;2022-12-04T04:52:46;100783.97;;;2.73;72.57
36248;BME280;22287;50.824;5.644;2022-12-04T04:55:15;100782.34;;;3.03;71.58
36248;BME280;22287;50.824;5.644;2022-12-04T04:57:43;100782.06;;;2.92;72.04
36248;BME280;22287;50.824;5.644;2022-12-04T05:00:13;100772.44;;;2.72;72.61
36248;BME280;22287;50.824;5.644;2022-12-04T05:02:41;100776.44;;;3.14;71.19
36248;BME280;22287;50.824;5.644;2022-12-04T05:05:08;100774.84;;;2.77;72.74
36248;BME280;22287;50.824;5.644;2022-12-04T05:07:35;100772.91;;;3.13;71.12
36248;BME280;22287;50.824;5.644;2022-12-04T05:10:03;100774.25;;;3.05;71.10
36248;BME280;22287;50.824;5.644;2022-12-04T05:12:30;100764.28;;;3.08;71.66
36248;BME280;22287;50.824;5.644;2022-12-04T05:14:57;100763.28;;;3.26;70.82
36248;BME280;22287;50.824;5.644;2022-12-04T05:17:23;100754.75;;;2.87;72.10
36248;BME280;22287;50.824;5.644;2022-12-04T05:19:50;100759.91;;;2.90;72.07
36248;BME280;22287;50.824;5.644;2022-12-04T05:22:28;100764.59;;;3.02;71.83
36248;BME280;22287;50.824;5.644;2022-12-04T05:24:55;100759.94;;;2.73;71.97
36248;BME280;22287;50.824;5.644;2022-12-04T05:27:22;100760.50;;;2.62;72.82
36248;BME280;22287;50.824;5.644;2022-12-04T05:29:53;100761.03;;;2.86;72.26
36248;BME280;22287;50.824;5.644;2022-12-04T05:32:22;100765.34;;;2.71;72.31
36248;BME280;22287;50.824;5.644;2022-12-04T05:34:50;100759.63;;;2.79;72.34
36248;BME280;22287;50.824;5.644;2022-12-04T05:37:18;100760.56;;;2.78;71.97
36248;BME280;22287;50.824;5.644;2022-12-04T05:39:45;100767.69;;;3.27;70.47
36248;BME280;22287;50.824;5.644;2022-12-04T05:42:12;100767.44;;;2.82;71.86
36248;BME280;22287;50.824;5.644;2022-12-04T05:44:39;100763.31;;;2.76;71.82
36248;BME280;22287;50.824;5.644;2022-12-04T05:47:06;100760.72;;;2.75;72.49
36248;BME280;22287;50.824;5.644;2022-12-04T05:49:33;100755.66;;;3.03;71.77
36248;BME280;22287;50.824;5.644;2022-12-04T05:52:03;100755.81;;;3.00;71.77
36248;BME280;22287;50.824;5.644;2022-12-04T05:54:30;100759.84;;;2.74;72.30
36248;BME280;22287;50.824;5.644;2022-12-04T05:56:57;100762.81;;;2.85;72.08
36248;BME280;22287;50.824;5.644;2022-12-04T05:59:24;100760.31;;;2.82;71.88
36248;BME280;22287;50.824;5.644;2022-12-04T06:01:51;100756.44;;;3.05;71.24
36248;BME280;22287;50.824;5.644;2022-12-04T06:04:18;100765.34;;;2.88;71.47
36248;BME280;22287;50.824;5.644;2022-12-04T06:06:45;100765.91;;;2.78;71.85
36248;BME280;22287;50.824;5.644;2022-12-04T06:09:12;100765.91;;;2.78;72.42
36248;BME280;22287;50.824;5.644;2022-12-04T06:11:40;100769.78;;;3.05;70.94
36248;BME280;22287;50.824;5.644;2022-12-04T06:14:10;100764.03;;;3.13;70.67
36248;BME280;22287;50.824;5.644;2022-12-04T06:16:39;100771.16;;;3.12;70.96
36248;BME280;22287;50.824;5.644;2022-12-04T06:19:09;100763.53;;;3.22;71.02
36248;BME280;22287;50.824;5.644;2022-12-04T06:21:39;100769.47;;;3.27;70.49
36248;BME280;22287;50.824;5.644;2022-12-04T06:24:07;100772.28;;;3.08;71.25
36248;BME280;22287;50.824;5.644;2022-12-04T06:26:35;100782.78;;;3.28;70.19
36248;BME280;22287;50.824;5.644;2022-12-04T06:29:13;100773.84;;;3.12;70.44
36248;BME280;22287;50.824;5.644;2022-12-04T06:31:41;100780.63;;;2.85;71.11
36248;BME280;22287;50.824;5.644;2022-12-04T06:34:09;100781.47;;;2.70;71.64
36248;BME280;22287;50.824;5.644;2022-12-04T06:36:36;100777.44;;;2.78;71.63
36248;BME280;22287;50.824;5.644;2022-12-04T06:39:03;100785.38;;;2.80;71.49
36248;BME280;22287;50.824;5.644;2022-12-04T06:41:30;100780.69;;;2.68;71.82
36248;BME280;22287;50.824;5.644;2022-12-04T06:43:57;100778.47;;;2.76;71.72
36248;BME280;22287;50.824;5.644;2022-12-04T06:46:27;100786.22;;;2.80;71.54
36248;BME280;22287;50.824;5.644;2022-12-04T06:48:55;100791.59;;;3.13;70.22
36248;BME280;22287;50.824;5.644;2022-12-04T06:51:31;100781.91;;;3.43;69.24
36248;BME280;22287;50.824;5.644;2022-12-04T06:53:59;100781.84;;;3.12;69.52
36248;BME280;22287;50.824;5.644;2022-12-04T06:56:29;100791.84;;;3.09;69.70
36248;BME280;22287;50.824;5.644;2022-12-04T06:58:58;100790.53;;;3.33;68.45
36248;BME280;22287;50.824;5.644;2022-12-04T07:01:27;100794.41;;;3.10;69.12
36248;BME280;22287;50.824;5.644;2022-12-04T07:03:55;100800.19;;;2.85;68.79
36248;BME280;22287;50.824;5.644;2022-12-04T07:06:34;100792.59;;;3.43;65.35
36248;BME280;22287;50.824;5.644;2022-12-04T07:09:07;100790.22;;;3.06;65.88
36248;BME280;22287;50.824;5.644;2022-12-04T07:11:39;100789.97;;;3.26;65.70
36248;BME280;22287;50.824;5.644;2022-12-04T07:14:07;100806.53;;;3.17;66.47
36248;BME280;22287;50.824;5.644;2022-12-04T07:16:34;100798.69;;;2.97;66.98
36248;BME280;22287;50.824;5.644;2022-12-04T07:19:06;100788.38;;;3.07;66.54
36248;BME280;22287;50.824;5.644;2022-12-04T07:21:33;100795.88;;;3.48;66.30
36248;BME280;22287;50.824;5.644;2022-12-04T07:24:00;100797.63;;;3.17;67.07
36248;BME280;22287;50.824;5.644;2022-12-04T07:26:28;100802.78;;;3.52;65.21
36248;BME280;22287;50.824;5.644;2022-12-04T07:28:57;100801.22;;;2.83;66.85
36248;BME280;22287;50.824;5.644;2022-12-04T07:31:25;100797.09;;;3.10;64.65
36248;BME280;22287;50.824;5.644;2022-12-04T07:33:52;100797.88;;;3.12;64.37
36248;BME280;22287;50.824;5.644;2022-12-04T07:36:21;100801.19;;;3.17;63.98
36248;BME280;22287;50.824;5.644;2022-12-04T07:38:48;100801.94;;;3.19;64.71
36248;BME280;22287;50.824;5.644;2022-12-04T07:41:17;100801.38;;;2.80;65.27
36248;BME280;22287;50.824;5.644;2022-12-04T07:43:45;100812.28;;;2.92;64.75
36248;BME280;22287;50.824;5.644;2022-12-04T07:46:14;100809.84;;;2.71;65.30
36248;BME280;22287;50.824;5.644;2022-12-04T07:48:42;100812.81;;;2.82;65.54
36248;BME280;22287;50.824;5.644;2022-12-04T07:51:14;100811.00;;;3.17;64.46
36248;BME280;22287;50.824;5.644;2022-12-04T07:53:41;100808.69;;;3.26;64.44
36248;BME280;22287;50.824;5.644;2022-12-04T07:56:10;100811.44;;;2.92;65.31
36248;BME280;22287;50.824;5.644;2022-12-04T07:58:37;100807.94;;;3.40;64.45
36248;BME280;22287;50.824;5.644;2022-12-04T08:01:09;100816.78;;;3.25;64.25
36248;BME280;22287;50.824;5.644;2022-12-04T08:03:38;100818.84;;;3.52;63.33
36248;BME280;22287;50.824;5.644;2022-12-04T08:06:11;100817.69;;;2.91;64.93
36248;BME280;22287;50.824;5.644;2022-12-04T08:08:38;100832.81;;;3.25;63.95
36248;BME280;22287;50.824;5.644;2022-12-04T08:11:10;100831.66;;;3.13;64.11
36248;BME280;22287;50.824;5.644;2022-12-04T08:13:38;100829.56;;;2.85;65.45
36248;BME280;22287;50.824;5.644;2022-12-04T08:16:07;100818.25;;;3.30;63.92
36248;BME280;22287;50.824;5.644;2022-12-04T08:18:34;100813.66;;;3.49;64.11
36248;BME280;22287;50.824;5.644;2022-12-04T08:21:12;100816.03;;;3.38;63.24
36248;BME280;22287;50.824;5.644;2022-12-04T08:23:41;100830.28;;;3.22;63.52
36248;BME280;22287;50.824;5.644;2022-12-04T08:26:09;100823.66;;;2.96;64.43
36248;BME280;22287;50.824;5.644;2022-12-04T08:28:38;100823.06;;;2.57;66.01
36248;BME280;22287;50.824;5.644;2022-12-04T08:31:13;100824.00;;;2.73;65.20
36248;BME280;22287;50.824;5.644;2022-12-04T08:33:41;100826.25;;;2.63;65.62
36248;BME280;22287;50.824;5.644;2022-12-04T08:36:10;100822.56;;;2.66;64.76
36248;BME280;22287;50.824;5.644;2022-12-04T08:38:38;100823.69;;;2.62;65.37
36248;BME280;22287;50.824;5.644;2022-12-04T08:41:07;100824.63;;;2.78;65.18
36248;BME280;22287;50.824;5.644;2022-12-04T08:43:36;100813.69;;;2.65;65.94
36248;BME280;22287;50.824;5.644;2022-12-04T08:46:05;100813.94;;;2.78;65.15
36248;BME280;22287;50.824;5.644;2022-12-04T08:48:32;100812.44;;;2.89;64.96
36248;BME280;22287;50.824;5.644;2022-12-04T08:51:00;100814.22;;;3.06;64.75
36248;BME280;22287;50.824;5.644;2022-12-04T08:53:27;100807.94;;;3.40;63.35
36248;BME280;22287;50.824;5.644;2022-12-04T08:55:53;100811.53;;;2.73;65.58
36248;BME280;22287;50.824;5.644;2022-12-04T08:58:20;100810.66;;;2.73;65.95
36248;BME280;22287;50.824;5.644;2022-12-04T09:00:48;100812.38;;;2.57;66.03
36248;BME280;22287;50.824;5.644;2022-12-04T09:03:18;100807.50;;;2.82;65.54
36248;BME280;22287;50.824;5.644;2022-12-04T09:05:49;100806.53;;;3.00;65.12
36248;BME280;22287;50.824;5.644;2022-12-04T09:08:16;100809.06;;;3.03;64.77
36248;BME280;22287;50.824;5.644;2022-12-04T09:10:43;100803.41;;;2.92;65.29
36248;BME280;22287;50.824;5.644;2022-12-04T09:13:10;100812.19;;;2.94;65.65
36248;BME280;22287;50.824;5.644;2022-12-04T09:15:38;100816.53;;;3.29;63.90
36248;BME280;22287;50.824;5.644;2022-12-04T09:18:06;100817.84;;;2.88;65.24
36248;BME280;22287;50.824;5.644;2022-12-04T09:20:34;100823.59;;;2.97;65.22
36248;BME280;22287;50.824;5.644;2022-12-04T09:23:02;100829.94;;;2.95;65.15
36248;BME280;22287;50.824;5.644;2022-12-04T09:25:34;100818.47;;;2.93;65.29
36248;BME280;22287;50.824;5.644;2022-12-04T09:28:01;100829.69;;;3.00;64.87
36248;BME280;22287;50.824;5.644;2022-12-04T09:30:28;100826.66;;;2.73;65.44
36248;BME280;22287;50.824;5.644;2022-12-04T09:32:55;100824.13;;;2.53;66.38
36248;BME280;22287;50.824;5.644;2022-12-04T09:35:22;100819.25;;;2.26;67.40
36248;BME280;22287;50.824;5.644;2022-12-04T09:37:49;100824.69;;;2.42;66.50
36248;BME280;22287;50.824;5.644;2022-12-04T09:40:27;100828.53;;;2.54;66.62
36248;BME280;22287;50.824;5.644;2022-12-04T09:43:21;100837.72;;;2.48;66.99
36248;BME280;22287;50.824;5.644;2022-12-04T09:45:54;100846.41;;;2.34;67.69
36248;BME280;22287;50.824;5.644;2022-12-04T09:48:31;100842.19;;;2.65;66.36
36248;BME280;22287;50.824;5.644;2022-12-04T09:51:00;100848.31;;;2.67;66.09
36248;BME280;22287;50.824;5.644;2022-12-04T09:53:40;100866.25;;;2.46;66.56
36248;BME280;22287;50.824;5.644;2022-12-04T09:56:11;100854.47;;;2.33;67.07
36248;BME280;22287;50.824;5.644;2022-12-04T09:59:07;100859.22;;;2.62;66.11
36248;BME280;22287;50.824;5.644;2022-12-04T10:04:13;100856.59;;;2.44;67.16
36248;BME280;22287;50.824;5.644;2022-12-04T10:09:23;100853.72;;;2.48;67.72
36248;BME280;22287;50.824;5.644;2022-12-04T10:15:28;100840.59;;;2.44;67.82
36248;BME280;22287;50.824;5.644;2022-12-04T10:21:01;100835.81;;;2.50;67.83
36248;BME280;22287;50.824;5.644;2022-12-04T10:23:36;100842.84;;;1.98;69.65
36248;BME280;22287;50.824;5.644;2022-12-04T10:26:14;100837.38;;;2.01;69.42
36248;BME280;22287;50.824;5.644;2022-12-04T10:28:47;100841.47;;;2.08;68.12
36248;BME280;22287;50.824;5.644;2022-12-04T10:31:21;100844.03;;;2.28;68.50
36248;BME280;22287;50.824;5.644;2022-12-04T10:34:25;100841.41;;;2.46;67.58
36248;BME280;22287;50.824;5.644;2022-12-04T10:36:54;100840.75;;;2.41;67.61
36248;BME280;22287;50.824;5.644;2022-12-04T10:39:54;100843.88;;;2.31;68.53
36248;BME280;22287;50.824;5.644;2022-12-04T10:42:28;100838.94;;;2.05;68.86
36248;BME280;22287;50.824;5.644;2022-12-04T10:44:56;100837.31;;;2.56;67.20
36248;BME280;22287;50.824;5.644;2022-12-04T10:47:24;100826.31;;;2.45;67.20
36248;BME280;22287;50.824;5.644;2022-12-04T10:50:17;100844.91;;;2.10;68.81
36248;BME280;22287;50.824;5.644;2022-12-04T10:52:58;100838.06;;;2.41;68.50
36248;BME280;22287;50.824;5.644;2022-12-04T10:55:28;100828.41;;;2.21;67.50
36248;BME280;22287;50.824;5.644;2022-12-04T10:57:55;100831.72;;;2.07;68.84
36248;BME280;22287;50.824;5.644;2022-12-04T11:02:55;100837.16;;;2.42;68.17
36248;BME280;22287;50.824;5.644;2022-12-04T11:05:24;100835.09;;;2.47;67.97
36248;BME280;22287;50.824;5.644;2022-12-04T11:07:54;100818.56;;;2.91;66.29
36248;BME280;22287;50.824;5.644;2022-12-04T11:10:39;100822.25;;;2.72;66.77
36248;BME280;22287;50.824;5.644;2022-12-04T11:15:47;100820.53;;;2.54;67.75
36248;BME280;22287;50.824;5.644;2022-12-04T11:23:40;100815.00;;;2.22;68.22
36248;BME280;22287;50.824;5.644;2022-12-04T11:26:08;100818.34;;;2.09;68.75
36248;BME280;22287;50.824;5.644;2022-12-04T11:28:36;100810.63;;;2.38;67.94
36248;BME280;22287;50.824;5.644;2022-12-04T11:31:09;100807.47;;;2.30;68.48
36248;BME280;22287;50.824;5.644;2022-12-04T11:33:42;100815.72;;;2.07;69.51
36248;BME280;22287;50.824;5.644;2022-12-04T11:36:23;100808.34;;;2.31;68.42
36248;BME280;22287;50.824;5.644;2022-12-04T11:38:52;100805.22;;;2.57;67.54
36248;BME280;22287;50.824;5.644;2022-12-04T11:41:25;100799.25;;;2.35;68.41
36248;BME280;22287;50.824;5.644;2022-12-04T11:43:54;100803.25;;;2.44;67.96
36248;BME280;22287;50.824;5.644;2022-12-04T11:46:28;100804.69;;;2.51;67.75
36248;BME280;22287;50.824;5.644;2022-12-04T11:48:56;100789.50;;;2.85;66.26
36248;BME280;22287;50.824;5.644;2022-12-04T11:54:16;100780.34;;;2.74;66.48
36248;BME280;22287;50.824;5.644;2022-12-04T11:57:05;100779.59;;;2.02;69.18
36248;BME280;22287;50.824;5.644;2022-12-04T11:59:51;100776.91;;;2.02;69.34
36248;BME280;22287;50.824;5.644;2022-12-04T12:08:19;100776.91;;;2.55;68.43
36248;BME280;22287;50.824;5.644;2022-12-04T12:11:01;100772.13;;;2.44;67.68
36248;BME280;22287;50.824;5.644;2022-12-04T12:24:29;100778.69;;;2.20;69.49
36248;BME280;22287;50.824;5.644;2022-12-04T12:30:09;100780.13;;;2.44;68.56
36248;BME280;22287;50.824;5.644;2022-12-04T12:35:34;100776.13;;;2.00;69.48
36248;BME280;22287;50.824;5.644;2022-12-04T12:38:06;100773.22;;;2.23;69.60
36248;BME280;22287;50.824;5.644;2022-12-04T12:40:39;100771.41;;;2.23;69.75
36248;BME280;22287;50.824;5.644;2022-12-04T12:46:03;100763.50;;;1.86;70.03
36248;BME280;22287;50.824;5.644;2022-12-04T12:54:03;100767.38;;;2.32;69.81
36248;BME280;22287;50.824;5.644;2022-12-04T12:56:40;100772.81;;;2.30;69.16
36248;BME280;22287;50.824;5.644;2022-12-04T12:59:21;100775.97;;;2.56;68.09
36248;BME280;22287;50.824;5.644;2022-12-04T13:04:41;100767.59;;;2.10;69.65
36248;BME280;22287;50.824;5.644;2022-12-04T13:07:31;100762.72;;;2.37;69.13
36248;BME280;22287;50.824;5.644;2022-12-04T13:10:12;100756.41;;;2.04;70.05
36248;BME280;22287;50.824;5.644;2022-12-04T13:12:55;100743.78;;;1.71;71.22
36248;BME280;22287;50.824;5.644;2022-12-04T13:15:33;100760.81;;;1.86;70.81
36248;BME280;22287;50.824;5.644;2022-12-04T13:18:06;100748.28;;;1.88;70.52
36248;BME280;22287;50.824;5.644;2022-12-04T13:20:42;100733.44;;;2.35;68.85
36248;BME280;22287;50.824;5.644;2022-12-04T13:26:21;100741.13;;;2.76;68.65
36248;BME280;22287;50.824;5.644;2022-12-04T13:29:01;100739.38;;;2.58;68.66
36248;BME280;22287;50.824;5.644;2022-12-04T13:31:46;100738.56;;;2.40;68.92
36248;BME280;22287;50.824;5.644;2022-12-04T13:42:23;100748.31;;;2.05;70.02
36248;BME280;22287;50.824;5.644;2022-12-04T13:44:54;100743.56;;;2.12;70.72
36248;BME280;22287;50.824;5.644;2022-12-04T13:47:32;100739.09;;;2.12;70.29
36248;BME280;22287;50.824;5.644;2022-12-04T13:50:07;100752.53;;;1.92;70.70
36248;BME280;22287;50.824;5.644;2022-12-04T13:52:39;100743.44;;;1.96;70.69
36248;BME280;22287;50.824;5.644;2022-12-04T13:58:00;100739.38;;;2.06;70.61
36248;BME280;22287;50.824;5.644;2022-12-04T14:00:32;100733.44;;;2.18;70.64
36248;BME280;22287;50.824;5.644;2022-12-04T14:03:06;100737.81;;;2.02;71.00
36248;BME280;22287;50.824;5.644;2022-12-04T14:05:46;100740.97;;;2.45;69.13
36248;BME280;22287;50.824;5.644;2022-12-04T14:10:58;100747.63;;;2.19;69.41
36248;BME280;22287;50.824;5.644;2022-12-04T14:13:34;100746.22;;;2.63;68.77
36248;BME280;22287;50.824;5.644;2022-12-04T14:19:03;100744.03;;;2.20;69.96
36248;BME280;22287;50.824;5.644;2022-12-04T14:21:41;100734.47;;;2.50;68.96
36248;BME280;22287;50.824;5.644;2022-12-04T14:26:53;100746.06;;;2.66;68.09
36248;BME280;22287;50.824;5.644;2022-12-04T14:29:45;100758.88;;;2.43;69.47
36248;BME280;22287;50.824;5.644;2022-12-04T14:32:16;100753.59;;;2.24;69.64
36248;BME280;22287;50.824;5.644;2022-12-04T14:34:46;100743.03;;;2.40;69.63
36248;BME280;22287;50.824;5.644;2022-12-04T14:37:19;100744.41;;;2.64;68.95
36248;BME280;22287;50.824;5.644;2022-12-04T14:39:48;100743.09;;;2.55;68.86
36248;BME280;22287;50.824;5.644;2022-12-04T14:44:45;100742.53;;;2.49;68.66
36248;BME280;22287;50.824;5.644;2022-12-04T14:47:32;100741.72;;;2.81;68.31
36248;BME280;22287;50.824;5.644;2022-12-04T14:50:33;100749.41;;;2.87;67.67
36248;BME280;22287;50.824;5.644;2022-12-04T14:58:45;100748.81;;;3.30;67.03
36248;BME280;22287;50.824;5.644;2022-12-04T15:01:22;100744.16;;;2.68;68.20
36248;BME280;22287;50.824;5.644;2022-12-04T15:03:57;100750.69;;;2.63;68.92
36248;BME280;22287;50.824;5.644;2022-12-04T15:06:31;100758.78;;;3.11;67.22
36248;BME280;22287;50.824;5.644;2022-12-04T15:09:01;100754.59;;;3.23;67.07
36248;BME280;22287;50.824;5.644;2022-12-04T15:11:54;100754.94;;;3.32;66.29
36248;BME280;22287;50.824;5.644;2022-12-04T15:14:48;100756.66;;;2.51;69.24
36248;BME280;22287;50.824;5.644;2022-12-04T15:17:16;100761.13;;;2.67;68.40
36248;BME280;22287;50.824;5.644;2022-12-04T15:19:44;100764.97;;;2.62;69.35
36248;BME280;22287;50.824;5.644;2022-12-04T15:22:22;100764.31;;;2.74;68.45
36248;BME280;22287;50.824;5.644;2022-12-04T15:24:51;100766.63;;;2.47;69.34
36248;BME280;22287;50.824;5.644;2022-12-04T15:27:21;100772.81;;;2.48;70.13
36248;BME280;22287;50.824;5.644;2022-12-04T15:29:55;100767.09;;;2.72;69.04
36248;BME280;22287;50.824;5.644;2022-12-04T15:32:24;100771.56;;;2.72;69.24
36248;BME280;22287;50.824;5.644;2022-12-04T15:34:59;100773.13;;;2.42;69.89
36248;BME280;22287;50.824;5.644;2022-12-04T15:37:28;100774.56;;;2.98;69.00
36248;BME280;22287;50.824;5.644;2022-12-04T15:39:56;100778.28;;;2.96;67.96
36248;BME280;22287;50.824;5.644;2022-12-04T15:55:29;100780.44;;;2.72;69.19